N928CJ KOWB-KRDU
Flight info
| Callsign | N928CJ |
|---|---|
| Flight time | N/A |
| Altitude | 43000 |
| Route | PSK ALDAN V136 RDU |
| Aircraft | C700/M-SBDGHM1RWXY/LB2 |
Departure
| Time | 2026-05-07 02:48 |
|---|---|
| Airport | Owensboro Daviess County Airport (KOWB) |
Arrival
| Time | N/A |
|---|---|
| Airport | Raleigh-Durham International Airport (KRDU) |
| Time | Latitude | Longitude | Altitude | Speed | Heading |
|---|---|---|---|---|---|
| 2026-05-07 02:34 | 37.73841 | -87.16420 | 403 ft | 0 kts | 268° |
| 2026-05-07 02:44 | 37.73828 | -87.16437 | 402 ft | 6 kts | 205° |
| 2026-05-07 02:44 | 37.73784 | -87.16486 | 401 ft | 11 kts | 255° |
| 2026-05-07 02:45 | 37.73727 | -87.16538 | 402 ft | 13 kts | 179° |
| 2026-05-07 02:45 | 37.73622 | -87.16534 | 402 ft | 17 kts | 178° |
| 2026-05-07 02:45 | 37.73488 | -87.16527 | 401 ft | 22 kts | 178° |
| 2026-05-07 02:45 | 37.73367 | -87.16520 | 401 ft | 0 kts | 176° |
| 2026-05-07 02:46 | 37.73363 | -87.16520 | 401 ft | 2 kts | 176° |
| 2026-05-07 02:46 | 37.73298 | -87.16516 | 402 ft | 15 kts | 179° |
| 2026-05-07 02:46 | 37.73157 | -87.16510 | 406 ft | 25 kts | 178° |
| 2026-05-07 02:46 | 37.72961 | -87.16499 | 405 ft | 30 kts | 178° |
| 2026-05-07 02:47 | 37.72773 | -87.16489 | 406 ft | 15 kts | 178° |
| 2026-05-07 02:47 | 37.72709 | -87.16593 | 404 ft | 20 kts | 269° |
| 2026-05-07 02:47 | 37.72793 | -87.16674 | 403 ft | 19 kts | 358° |
| 2026-05-07 02:47 | 37.73017 | -87.16686 | 407 ft | 73 kts | 357° |
| 2026-05-07 02:48 | 37.73848 | -87.16726 | 678 ft | 150 kts | 357° |
| 2026-05-07 02:48 | 37.74994 | -87.16805 | 1812 ft | 178 kts | 356° |
| 2026-05-07 02:48 | 37.76321 | -87.16935 | 3012 ft | 214 kts | 355° |
| 2026-05-07 02:48 | 37.77960 | -87.17066 | 3902 ft | 255 kts | 356° |
| 2026-05-07 02:49 | 37.79644 | -87.17182 | 4268 ft | 238 kts | 356° |
| 2026-05-07 02:49 | 37.81293 | -87.17297 | 4190 ft | 236 kts | 356° |
| 2026-05-07 02:49 | 37.82892 | -87.17408 | 4241 ft | 229 kts | 356° |
| 2026-05-07 02:49 | 37.84485 | -87.17519 | 4146 ft | 230 kts | 356° |
| 2026-05-07 02:50 | 37.86015 | -87.17088 | 4173 ft | 233 kts | 30° |
| 2026-05-07 02:50 | 37.87034 | -87.15472 | 4163 ft | 246 kts | 68° |
| 2026-05-07 02:50 | 37.87107 | -87.13201 | 4695 ft | 268 kts | 97° |
| 2026-05-07 02:50 | 37.86761 | -87.10925 | 6689 ft | 270 kts | 99° |
| 2026-05-07 02:51 | 37.86481 | -87.08461 | 8093 ft | 293 kts | 96° |
| 2026-05-07 02:51 | 37.86267 | -87.05814 | 9626 ft | 313 kts | 97° |
| 2026-05-07 02:51 | 37.86018 | -87.02979 | 10946 ft | 338 kts | 99° |
| 2026-05-07 02:51 | 37.85713 | -86.99901 | 12169 ft | 367 kts | 99° |
| 2026-05-07 02:52 | 37.85380 | -86.96534 | 12975 ft | 412 kts | 99° |
| 2026-05-07 02:52 | 37.85028 | -86.92823 | 12990 ft | 441 kts | 98° |
| 2026-05-07 02:52 | 37.84676 | -86.88956 | 12987 ft | 442 kts | 98° |
| 2026-05-07 02:52 | 37.84309 | -86.85094 | 12984 ft | 443 kts | 98° |
| 2026-05-07 02:53 | 37.83928 | -86.81229 | 12977 ft | 443 kts | 99° |
| 2026-05-07 02:53 | 37.83555 | -86.77378 | 13476 ft | 435 kts | 98° |
| 2026-05-07 02:53 | 37.83207 | -86.73703 | 15767 ft | 406 kts | 100° |
| 2026-05-07 02:53 | 37.82861 | -86.70144 | 17604 ft | 417 kts | 103° |
| 2026-05-07 02:54 | 37.82485 | -86.66432 | 18792 ft | 431 kts | 103° |
| 2026-05-07 02:54 | 37.82110 | -86.62618 | 19978 ft | 443 kts | 103° |
| 2026-05-07 02:54 | 37.81732 | -86.58700 | 21057 ft | 455 kts | 103° |
| 2026-05-07 02:54 | 37.81339 | -86.54686 | 22108 ft | 465 kts | 103° |
| 2026-05-07 02:55 | 37.80930 | -86.50580 | 23182 ft | 476 kts | 103° |
| 2026-05-07 02:55 | 37.80511 | -86.46382 | 24111 ft | 487 kts | 103° |
| 2026-05-07 02:55 | 37.80092 | -86.42154 | 25055 ft | 495 kts | 103° |
| 2026-05-07 02:55 | 37.79659 | -86.37799 | 25976 ft | 504 kts | 103° |
| 2026-05-07 02:56 | 37.79213 | -86.33365 | 26842 ft | 513 kts | 103° |
| 2026-05-07 02:56 | 37.78757 | -86.28860 | 27715 ft | 521 kts | 104° |
| 2026-05-07 02:56 | 37.78295 | -86.24286 | 28584 ft | 529 kts | 103° |
| 2026-05-07 02:56 | 37.77824 | -86.19635 | 29437 ft | 538 kts | 103° |
| 2026-05-07 02:57 | 37.77342 | -86.14913 | 30251 ft | 545 kts | 103° |
| 2026-05-07 02:57 | 37.76853 | -86.10133 | 31034 ft | 551 kts | 104° |
| 2026-05-07 02:57 | 37.76356 | -86.05301 | 31746 ft | 558 kts | 104° |
| 2026-05-07 02:57 | 37.75851 | -86.00414 | 32443 ft | 564 kts | 105° |
| 2026-05-07 02:58 | 37.75340 | -85.95481 | 33113 ft | 570 kts | 105° |
| 2026-05-07 02:58 | 37.74827 | -85.90560 | 33767 ft | 575 kts | 105° |
| 2026-05-07 02:58 | 37.74301 | -85.85522 | 34383 ft | 581 kts | 105° |
| 2026-05-07 02:58 | 37.73767 | -85.80437 | 34926 ft | 587 kts | 105° |
| 2026-05-07 02:59 | 37.73225 | -85.75302 | 35440 ft | 593 kts | 105° |
| 2026-05-07 02:59 | 37.72679 | -85.70125 | 36016 ft | 596 kts | 104° |
| 2026-05-07 02:59 | 37.72130 | -85.64937 | 36667 ft | 596 kts | 104° |
| 2026-05-07 02:59 | 37.71576 | -85.59753 | 37272 ft | 596 kts | 104° |
| 2026-05-07 03:00 | 37.71016 | -85.54555 | 37831 ft | 597 kts | 104° |
| 2026-05-07 03:00 | 37.70464 | -85.49424 | 38346 ft | 598 kts | 104° |
| 2026-05-07 03:00 | 37.69903 | -85.44224 | 38816 ft | 599 kts | 104° |
| 2026-05-07 03:00 | 37.69338 | -85.39016 | 39201 ft | 599 kts | 103° |
| 2026-05-07 03:01 | 37.68770 | -85.33816 | 39639 ft | 597 kts | 103° |
| 2026-05-07 03:01 | 37.68203 | -85.28630 | 40103 ft | 595 kts | 103° |
| 2026-05-07 03:01 | 37.67636 | -85.23474 | 40560 ft | 592 kts | 103° |
| 2026-05-07 03:01 | 37.67069 | -85.18338 | 40993 ft | 590 kts | 103° |
| 2026-05-07 03:02 | 37.65909 | -85.07957 | 41035 ft | 605 kts | 103° |
| 2026-05-07 03:02 | 37.64735 | -84.97424 | 41050 ft | 614 kts | 103° |
| 2026-05-07 03:03 | 37.63534 | -84.86789 | 41067 ft | 610 kts | 103° |
| 2026-05-07 03:03 | 37.62332 | -84.76236 | 41059 ft | 605 kts | 103° |
| 2026-05-07 03:04 | 37.61126 | -84.65736 | 41026 ft | 605 kts | 104° |
| 2026-05-07 03:04 | 37.59910 | -84.55229 | 41045 ft | 606 kts | 104° |
| 2026-05-07 03:05 | 37.58681 | -84.44697 | 41029 ft | 608 kts | 104° |
| 2026-05-07 03:05 | 37.57452 | -84.34235 | 41048 ft | 607 kts | 104° |
| 2026-05-07 03:06 | 37.56204 | -84.23714 | 41048 ft | 607 kts | 104° |
| 2026-05-07 03:06 | 37.54949 | -84.13201 | 41036 ft | 607 kts | 104° |
| 2026-05-07 03:07 | 37.53685 | -84.02695 | 41026 ft | 606 kts | 104° |
| 2026-05-07 03:07 | 37.52412 | -83.92204 | 41011 ft | 605 kts | 104° |
| 2026-05-07 03:08 | 37.51142 | -83.81811 | 41006 ft | 604 kts | 104° |
| 2026-05-07 03:08 | 37.49856 | -83.71365 | 41005 ft | 604 kts | 104° |
| 2026-05-07 03:09 | 37.48557 | -83.60900 | 41004 ft | 606 kts | 104° |
| 2026-05-07 03:09 | 37.47246 | -83.50405 | 41005 ft | 608 kts | 104° |
| 2026-05-07 03:10 | 37.45933 | -83.39972 | 41035 ft | 607 kts | 104° |
| 2026-05-07 03:10 | 37.44604 | -83.29489 | 41036 ft | 606 kts | 104° |
| 2026-05-07 03:11 | 37.43268 | -83.19040 | 41040 ft | 605 kts | 104° |
| 2026-05-07 03:11 | 37.41926 | -83.08606 | 41033 ft | 604 kts | 104° |
| 2026-05-07 03:12 | 37.40572 | -82.98162 | 41019 ft | 606 kts | 104° |
| 2026-05-07 03:12 | 37.39213 | -82.87755 | 41002 ft | 608 kts | 104° |
| 2026-05-07 03:13 | 37.37817 | -82.77265 | 40980 ft | 604 kts | 107° |
| 2026-05-07 03:13 | 37.36721 | -82.72227 | 40998 ft | 592 kts | 117° |
| 2026-05-07 03:13 | 37.35095 | -82.67548 | 40994 ft | 577 kts | 127° |
| 2026-05-07 03:14 | 37.32996 | -82.63336 | 40994 ft | 561 kts | 138° |
| 2026-05-07 03:14 | 37.30502 | -82.59691 | 40988 ft | 539 kts | 148° |
| 2026-05-07 03:14 | 37.24992 | -82.53995 | 40105 ft | 504 kts | 159° |
| 2026-05-07 03:15 | 37.22183 | -82.51386 | 39562 ft | 502 kts | 159° |
| 2026-05-07 03:15 | 37.19462 | -82.48568 | 39065 ft | 513 kts | 152° |
| 2026-05-07 03:15 | 37.16888 | -82.45399 | 38568 ft | 523 kts | 148° |
| 2026-05-07 03:15 | 37.14374 | -82.42057 | 38000 ft | 530 kts | 147° |
| 2026-05-07 03:16 | 37.11801 | -82.38772 | 37413 ft | 526 kts | 150° |
| 2026-05-07 03:16 | 37.09109 | -82.35700 | 36880 ft | 523 kts | 153° |
| 2026-05-07 03:16 | 37.06413 | -82.32640 | 36349 ft | 524 kts | 151° |
| 2026-05-07 03:16 | 37.03798 | -82.29450 | 35835 ft | 525 kts | 149° |
| 2026-05-07 03:17 | 37.01220 | -82.26245 | 35331 ft | 520 kts | 149° |
| 2026-05-07 03:17 | 36.98653 | -82.23197 | 34841 ft | 513 kts | 151° |
| 2026-05-07 03:17 | 36.96040 | -82.20170 | 34310 ft | 511 kts | 150° |
| 2026-05-07 03:17 | 36.93456 | -82.17113 | 33820 ft | 513 kts | 149° |
| 2026-05-07 03:18 | 36.90888 | -82.14010 | 33279 ft | 515 kts | 149° |
| 2026-05-07 03:18 | 36.88287 | -82.10905 | 32992 ft | 520 kts | 149° |
| 2026-05-07 03:18 | 36.85610 | -82.07774 | 32991 ft | 537 kts | 149° |
| 2026-05-07 03:18 | 36.82859 | -82.04535 | 32999 ft | 548 kts | 148° |
| 2026-05-07 03:19 | 36.80112 | -82.01234 | 33000 ft | 548 kts | 148° |
| 2026-05-07 03:19 | 36.75171 | -81.93809 | 32989 ft | 567 kts | 134° |
| 2026-05-07 03:20 | 36.71594 | -81.84950 | 32979 ft | 587 kts | 118° |
| 2026-05-07 03:20 | 36.69699 | -81.75059 | 32844 ft | 584 kts | 102° |
| 2026-05-07 03:21 | 36.69689 | -81.64962 | 32682 ft | 587 kts | 85° |
| 2026-05-07 03:21 | 36.71493 | -81.55036 | 32634 ft | 589 kts | 73° |
| 2026-05-07 03:22 | 36.73773 | -81.45205 | 32583 ft | 592 kts | 73° |
| 2026-05-07 03:22 | 36.76030 | -81.35391 | 32548 ft | 593 kts | 73° |
| 2026-05-07 03:23 | 36.78303 | -81.25507 | 32499 ft | 591 kts | 73° |
| 2026-05-07 03:23 | 36.80536 | -81.15717 | 32443 ft | 584 kts | 73° |
| 2026-05-07 03:24 | 36.82760 | -81.05958 | 32350 ft | 586 kts | 73° |
| 2026-05-07 03:24 | 36.84980 | -80.96150 | 32291 ft | 589 kts | 73° |
| 2026-05-07 03:25 | 36.87203 | -80.86308 | 32267 ft | 588 kts | 72° |
| 2026-05-07 03:25 | 36.89389 | -80.76578 | 32241 ft | 587 kts | 73° |
| 2026-05-07 03:26 | 36.91595 | -80.66724 | 32208 ft | 590 kts | 73° |
| 2026-05-07 03:26 | 36.93792 | -80.56855 | 32182 ft | 589 kts | 73° |
| 2026-05-07 03:27 | 36.95513 | -80.49105 | 32161 ft | 586 kts | 72° |
| 2026-05-07 03:27 | 36.97182 | -80.41361 | 32154 ft | 583 kts | 73° |
| 2026-05-07 03:28 | 36.99234 | -80.31544 | 32126 ft | 584 kts | 73° |
| 2026-05-07 03:28 | 37.01325 | -80.21774 | 32079 ft | 586 kts | 73° |
| 2026-05-07 03:29 | 37.02979 | -80.11800 | 31993 ft | 585 kts | 85° |
| 2026-05-07 03:29 | 37.02674 | -80.01745 | 31843 ft | 575 kts | 103° |
| 2026-05-07 03:30 | 37.00400 | -79.92279 | 31510 ft | 568 kts | 120° |
| 2026-05-07 03:30 | 36.98770 | -79.87758 | 30771 ft | 569 kts | 121° |
| 2026-05-07 03:30 | 36.97148 | -79.83277 | 30026 ft | 561 kts | 121° |
| 2026-05-07 03:30 | 36.95598 | -79.78918 | 29252 ft | 551 kts | 120° |
| 2026-05-07 03:31 | 36.94065 | -79.74595 | 28569 ft | 537 kts | 120° |
| 2026-05-07 03:31 | 36.92551 | -79.70389 | 27885 ft | 526 kts | 120° |
| 2026-05-07 03:31 | 36.91048 | -79.66249 | 27207 ft | 521 kts | 120° |
| 2026-05-07 03:31 | 36.89565 | -79.62137 | 26532 ft | 518 kts | 119° |
| 2026-05-07 03:32 | 36.88098 | -79.58047 | 25856 ft | 515 kts | 119° |
| 2026-05-07 03:32 | 36.86636 | -79.53987 | 25188 ft | 510 kts | 119° |
| 2026-05-07 03:32 | 36.85185 | -79.49982 | 24534 ft | 503 kts | 119° |
| 2026-05-07 03:32 | 36.83756 | -79.46039 | 23886 ft | 495 kts | 119° |
| 2026-05-07 03:33 | 36.82365 | -79.42199 | 23207 ft | 489 kts | 118° |
| 2026-05-07 03:33 | 36.80977 | -79.38367 | 22583 ft | 480 kts | 118° |
| 2026-05-07 03:33 | 36.79610 | -79.34605 | 21968 ft | 474 kts | 118° |
| 2026-05-07 03:33 | 36.78249 | -79.30872 | 21353 ft | 472 kts | 118° |
| 2026-05-07 03:34 | 36.76894 | -79.27154 | 20738 ft | 470 kts | 118° |
| 2026-05-07 03:34 | 36.75543 | -79.23446 | 20124 ft | 468 kts | 118° |
| 2026-05-07 03:34 | 36.74205 | -79.19774 | 19480 ft | 463 kts | 118° |
| 2026-05-07 03:34 | 36.72877 | -79.16140 | 18911 ft | 459 kts | 118° |
| 2026-05-07 03:35 | 36.71555 | -79.12533 | 18316 ft | 456 kts | 118° |
| 2026-05-07 03:35 | 36.70083 | -79.09131 | 17671 ft | 448 kts | 128° |
| 2026-05-07 03:35 | 36.68217 | -79.06107 | 17146 ft | 433 kts | 138° |
| 2026-05-07 03:35 | 36.66072 | -79.03561 | 16579 ft | 419 kts | 147° |
| 2026-05-07 03:36 | 36.63727 | -79.01512 | 16034 ft | 405 kts | 156° |
| 2026-05-07 03:36 | 36.61253 | -78.99960 | 15504 ft | 392 kts | 165° |
| 2026-05-07 03:36 | 36.58717 | -78.98889 | 14993 ft | 379 kts | 173° |
| 2026-05-07 03:36 | 36.56187 | -78.98159 | 14511 ft | 366 kts | 175° |
| 2026-05-07 03:37 | 36.53773 | -78.97457 | 14046 ft | 346 kts | 174° |
| 2026-05-07 03:37 | 36.51499 | -78.96786 | 13583 ft | 326 kts | 175° |
| 2026-05-07 03:37 | 36.49350 | -78.96164 | 13164 ft | 309 kts | 175° |
| 2026-05-07 03:37 | 36.47327 | -78.95585 | 12758 ft | 296 kts | 175° |
| 2026-05-07 03:38 | 36.45336 | -78.95015 | 12391 ft | 293 kts | 175° |
| 2026-05-07 03:38 | 36.43346 | -78.94445 | 12018 ft | 295 kts | 175° |
| 2026-05-07 03:38 | 36.41354 | -78.93746 | 11649 ft | 303 kts | 166° |
| 2026-05-07 03:38 | 36.39457 | -78.92537 | 11281 ft | 310 kts | 155° |
| 2026-05-07 03:39 | 36.37764 | -78.90847 | 10894 ft | 315 kts | 142° |
| 2026-05-07 03:39 | 36.36250 | -78.88892 | 10492 ft | 311 kts | 140° |
| 2026-05-07 03:39 | 36.34773 | -78.86995 | 10128 ft | 300 kts | 141° |
| 2026-05-07 03:39 | 36.33336 | -78.85174 | 9747 ft | 291 kts | 141° |
| 2026-05-07 03:40 | 36.31940 | -78.83402 | 9373 ft | 283 kts | 141° |
| 2026-05-07 03:40 | 36.30611 | -78.81710 | 9021 ft | 270 kts | 141° |
| 2026-05-07 03:40 | 36.29338 | -78.80089 | 8684 ft | 255 kts | 142° |
| 2026-05-07 03:40 | 36.28112 | -78.78565 | 8381 ft | 245 kts | 143° |
| 2026-05-07 03:41 | 36.26931 | -78.77089 | 8082 ft | 239 kts | 143° |
| 2026-05-07 03:41 | 36.25775 | -78.75618 | 7787 ft | 238 kts | 142° |
| 2026-05-07 03:41 | 36.24618 | -78.74147 | 7480 ft | 239 kts | 142° |
| 2026-05-07 03:41 | 36.23456 | -78.72675 | 7182 ft | 239 kts | 142° |
| 2026-05-07 03:42 | 36.22287 | -78.71195 | 6876 ft | 241 kts | 142° |
| 2026-05-07 03:42 | 36.21115 | -78.69710 | 6579 ft | 241 kts | 142° |
| 2026-05-07 03:42 | 36.19964 | -78.68250 | 6280 ft | 240 kts | 142° |
| 2026-05-07 03:42 | 36.18813 | -78.66752 | 6024 ft | 240 kts | 136° |
| 2026-05-07 03:43 | 36.18178 | -78.64861 | 6010 ft | 246 kts | 96° |
| 2026-05-07 03:43 | 36.18564 | -78.62814 | 5997 ft | 248 kts | 56° |
| 2026-05-07 03:43 | 36.19813 | -78.61430 | 6019 ft | 240 kts | 17° |
| 2026-05-07 03:43 | 36.21395 | -78.61151 | 6033 ft | 225 kts | 342° |
| 2026-05-07 03:44 | 36.22754 | -78.61893 | 6037 ft | 208 kts | 312° |
| 2026-05-07 03:44 | 36.23431 | -78.62707 | 6037 ft | 204 kts | 306° |
| 2026-05-07 03:44 | 36.24411 | -78.63975 | 6037 ft | 203 kts | 306° |
| 2026-05-07 03:44 | 36.25716 | -78.65637 | 6036 ft | 203 kts | 306° |
| 2026-05-07 03:45 | 36.26699 | -78.66880 | 6038 ft | 202 kts | 306° |
| 2026-05-07 03:45 | 36.27679 | -78.68121 | 6034 ft | 201 kts | 306° |
| 2026-05-07 03:45 | 36.28531 | -78.69451 | 6015 ft | 192 kts | 288° |
| 2026-05-07 03:45 | 36.28782 | -78.71026 | 6024 ft | 185 kts | 265° |
| 2026-05-07 03:46 | 36.28630 | -78.72056 | 6018 ft | 184 kts | 251° |
| 2026-05-07 03:46 | 36.27953 | -78.73397 | 6025 ft | 188 kts | 229° |
| 2026-05-07 03:46 | 36.26818 | -78.74250 | 6017 ft | 198 kts | 205° |
| 2026-05-07 03:46 | 36.25403 | -78.74340 | 6017 ft | 214 kts | 178° |
| 2026-05-07 03:47 | 36.23617 | -78.73105 | 6021 ft | 230 kts | 150° |
| 2026-05-07 03:47 | 36.22431 | -78.71748 | 6026 ft | 235 kts | 142° |
| 2026-05-07 03:47 | 36.21332 | -78.70237 | 6020 ft | 237 kts | 139° |
| 2026-05-07 03:47 | 36.20238 | -78.68700 | 6019 ft | 238 kts | 140° |
| 2026-05-07 03:48 | 36.19497 | -78.67692 | 6006 ft | 240 kts | 140° |
| 2026-05-07 03:48 | 36.18273 | -78.66271 | 5801 ft | 242 kts | 150° |
| 2026-05-07 03:48 | 36.16951 | -78.64989 | 5504 ft | 240 kts | 150° |
| 2026-05-07 03:48 | 36.15673 | -78.63709 | 5187 ft | 233 kts | 150° |
| 2026-05-07 03:49 | 36.14432 | -78.62460 | 4874 ft | 227 kts | 150° |
| 2026-05-07 03:49 | 36.12829 | -78.60868 | 4471 ft | 219 kts | 152° |
| 2026-05-07 03:49 | 36.11971 | -78.60209 | 4266 ft | 212 kts | 163° |
| 2026-05-07 03:49 | 36.10616 | -78.59635 | 4029 ft | 200 kts | 177° |
| 2026-05-07 03:50 | 36.09300 | -78.59485 | 4026 ft | 189 kts | 189° |
| 2026-05-07 03:50 | 36.08007 | -78.59705 | 4030 ft | 187 kts | 201° |
| 2026-05-07 03:50 | 36.06739 | -78.60108 | 4036 ft | 190 kts | 201° |
| 2026-05-07 03:50 | 36.05444 | -78.60496 | 4036 ft | 192 kts | 201° |
| 2026-05-07 03:51 | 36.04148 | -78.60884 | 4033 ft | 188 kts | 200° |
| 2026-05-07 03:51 | 36.02924 | -78.61247 | 4018 ft | 174 kts | 201° |
| 2026-05-07 03:51 | 36.01783 | -78.61603 | 4015 ft | 165 kts | 205° |
| 2026-05-07 03:51 | 36.00768 | -78.62199 | 3944 ft | 163 kts | 218° |
| 2026-05-07 03:52 | 35.99896 | -78.63089 | 3733 ft | 160 kts | 229° |
| 2026-05-07 03:52 | 35.99142 | -78.64048 | 3522 ft | 156 kts | 227° |
| 2026-05-07 03:52 | 35.98391 | -78.64975 | 3343 ft | 145 kts | 226° |
| 2026-05-07 03:52 | 35.97695 | -78.65831 | 3106 ft | 139 kts | 225° |
| 2026-05-07 03:53 | 35.97008 | -78.66647 | 2903 ft | 135 kts | 226° |
| 2026-05-07 03:53 | 35.96342 | -78.67457 | 2714 ft | 134 kts | 227° |
| 2026-05-07 03:53 | 35.95691 | -78.68265 | 2547 ft | 130 kts | 227° |
| 2026-05-07 03:53 | 35.95071 | -78.69037 | 2379 ft | 124 kts | 226° |
| 2026-05-07 03:54 | 35.94478 | -78.69773 | 2216 ft | 122 kts | 226° |
| 2026-05-07 03:54 | 35.93897 | -78.70503 | 2055 ft | 112 kts | 225° |
| 2026-05-07 03:54 | 35.93401 | -78.71118 | 1935 ft | 102 kts | 225° |
| 2026-05-07 03:54 | 35.92867 | -78.71791 | 1794 ft | 116 kts | 225° |
| 2026-05-07 03:55 | 35.92322 | -78.72526 | 1618 ft | 117 kts | 225° |
| 2026-05-07 03:55 | 35.91749 | -78.73214 | 1492 ft | 113 kts | 223° |
| 2026-05-07 03:55 | 35.91183 | -78.73882 | 1327 ft | 113 kts | 224° |
| 2026-05-07 03:55 | 35.90626 | -78.74589 | 1099 ft | 118 kts | 223° |
| 2026-05-07 03:56 | 35.90045 | -78.75307 | 885 ft | 121 kts | 225° |
| 2026-05-07 03:56 | 35.89462 | -78.76054 | 717 ft | 119 kts | 224° |